createdAt,value
2023-05-02T04:28:32.095Z,79.13
2023-05-02T04:32:36.714Z,79.13
2023-05-02T04:36:44.872Z,79.42
2023-05-02T04:40:53.492Z,79.24
2023-05-02T04:44:58.361Z,78.59
2023-05-02T04:49:02.527Z,77.61
2023-05-02T04:53:06.148Z,77.14
2023-05-02T04:57:10.398Z,76.01
2023-05-02T05:01:14.280Z,77.10
2023-05-02T05:05:17.631Z,75.77
2023-05-02T05:09:20.668Z,74.91
2023-05-02T05:13:23.865Z,73.02
2023-05-02T05:17:26.854Z,72.69
2023-05-02T05:21:30.202Z,72.09
2023-05-02T05:25:34.305Z,71.59
2023-05-02T05:29:38.753Z,71.43
2023-05-02T05:33:42.130Z,71.29
2023-05-02T05:37:46.361Z,70.08
2023-05-02T05:41:49.799Z,69.85
2023-05-02T05:45:53.715Z,72.06
2023-05-02T05:49:57.153Z,71.66
2023-05-02T05:54:00.720Z,70.67
2023-05-02T05:58:03.924Z,69.25
2023-05-02T06:02:17.932Z,70.18
2023-05-02T06:06:22.682Z,70.17
2023-05-02T06:10:27.675Z,69.61
2023-05-02T06:14:36.940Z,70.36
2023-05-02T06:18:46.959Z,68.51
2023-05-02T06:22:51.258Z,67.77
2023-05-02T06:26:54.032Z,67.50
2023-05-02T06:31:01.848Z,67.60
2023-05-02T06:35:04.836Z,66.24
2023-05-02T06:39:07.835Z,66.71
2023-05-02T06:43:10.425Z,67.26
2023-05-02T06:47:13.630Z,65.33
2023-05-02T06:51:16.348Z,66.54
2023-05-02T06:55:19.365Z,68.24
2023-05-02T06:59:22.002Z,66.99
2023-05-02T07:03:33.543Z,66.18
2023-05-02T07:07:37.952Z,66.45
2023-05-02T07:11:40.942Z,66.94
2023-05-02T07:15:45.021Z,64.87
2023-05-02T07:19:49.740Z,64.88
2023-05-02T07:23:55.957Z,59.80
2023-05-02T07:28:13.924Z,60.51
2023-05-02T07:32:18.848Z,60.90
2023-05-02T07:36:33.476Z,61.99
2023-05-02T07:40:49.207Z,61.77
2023-05-02T07:45:21.400Z,62.96
2023-05-02T07:49:39.783Z,57.56
2023-05-02T07:54:25.943Z,55.08
2023-05-02T07:58:33.223Z,52.99
2023-05-02T08:02:38.364Z,50.65
2023-05-02T08:06:53.987Z,49.91
2023-05-02T08:11:06.365Z,49.69
2023-05-02T08:15:33.418Z,47.62
2023-05-02T08:19:36.126Z,46.00
2023-05-02T08:23:41.978Z,48.23
2023-05-02T08:27:45.457Z,47.43
2023-05-02T08:31:49.092Z,47.63
2023-05-02T08:35:55.068Z,45.10
2023-05-02T08:40:03.832Z,46.46
2023-05-02T08:44:10.514Z,47.05
2023-05-02T08:48:19.065Z,46.56
2023-05-02T08:52:22.360Z,47.89
2023-05-02T08:56:27.050Z,46.27
2023-05-02T09:00:33.299Z,46.25
2023-05-02T09:04:43.734Z,45.91
2023-05-02T09:08:55.084Z,46.49
2023-05-02T09:13:19.522Z,46.04
2023-05-02T09:22:07.098Z,45.53
2023-05-02T09:26:35.578Z,46.19
2023-05-02T09:31:54.094Z,46.70
2023-05-02T09:36:17.783Z,45.18
2023-05-02T09:40:21.780Z,46.20
2023-05-02T09:44:38.364Z,45.69
2023-05-02T09:48:59.034Z,43.93
2023-05-02T09:53:10.353Z,43.39
2023-05-02T09:57:45.048Z,42.95
2023-05-02T10:02:00.959Z,43.02
2023-05-02T10:06:08.618Z,43.63
2023-05-02T10:10:15.334Z,42.73
2023-05-02T10:14:22.893Z,41.35
2023-05-02T10:18:46.862Z,42.24
2023-05-02T10:22:51.882Z,40.88
2023-05-02T10:26:59.301Z,39.40
2023-05-02T10:31:35.642Z,38.27
2023-05-02T10:35:40.078Z,37.66
2023-05-02T10:39:43.037Z,37.89
2023-05-02T10:43:47.875Z,39.29
2023-05-02T10:47:53.189Z,37.49
2023-05-02T10:51:56.016Z,36.79
2023-05-02T10:56:22.345Z,36.38
2023-05-02T11:00:29.566Z,37.42
2023-05-02T11:05:10.053Z,32.39
2023-05-02T11:09:18.975Z,33.07
2023-05-02T11:13:50.712Z,34.16
2023-05-02T11:18:12.120Z,31.26
2023-05-02T11:22:19.481Z,33.45
2023-05-02T11:26:23.241Z,34.26
2023-05-02T11:30:52.689Z,33.17
2023-05-02T11:34:56.211Z,34.21
2023-05-02T11:39:05.429Z,32.52
2023-05-02T11:43:16.759Z,31.67
2023-05-02T11:47:20.455Z,31.40
2023-05-02T11:51:24.714Z,32.51
2023-05-02T11:55:28.421Z,34.10
2023-05-02T11:59:58.137Z,33.59
2023-05-02T12:04:10.116Z,34.61
2023-05-02T12:08:29.664Z,35.21
2023-05-02T12:12:33.983Z,35.90
2023-05-02T12:16:37.403Z,34.22
2023-05-02T12:20:40.275Z,31.85
2023-05-02T12:24:43.826Z,31.24
2023-05-02T12:28:54.988Z,30.17
2023-05-02T12:32:59.321Z,32.21
2023-05-02T12:37:02.814Z,31.45
2023-05-02T12:41:06.002Z,30.50
2023-05-02T12:45:18.580Z,31.92
2023-05-02T12:49:21.638Z,34.35
2023-05-02T12:53:41.510Z,33.06
2023-05-02T12:57:47.450Z,33.33
2023-05-02T13:01:50.226Z,33.83
2023-05-02T13:05:56.452Z,35.52
2023-05-02T13:09:59.225Z,32.47
2023-05-02T13:14:05.301Z,34.85
2023-05-02T13:18:08.093Z,35.58
2023-05-02T13:22:11.682Z,37.25
2023-05-02T13:26:14.595Z,38.47
2023-05-02T13:30:17.689Z,36.69
2023-05-02T13:34:20.371Z,37.18
2023-05-02T13:38:23.516Z,38.08
2023-05-02T13:42:33.707Z,35.75
2023-05-02T13:46:43.438Z,34.68
2023-05-02T13:50:46.240Z,34.99
2023-05-02T13:54:49.370Z,37.33
2023-05-02T13:58:52.417Z,36.45
2023-05-02T14:03:07.015Z,35.95
2023-05-02T14:07:14.692Z,35.70
2023-05-02T14:11:17.923Z,36.58
2023-05-02T14:15:21.192Z,36.96
2023-05-02T14:19:23.955Z,36.98
2023-05-02T14:23:30.239Z,36.98
2023-05-02T14:27:32.970Z,37.89
2023-05-02T14:31:36.279Z,38.55
2023-05-02T14:35:38.944Z,37.55
2023-05-02T14:39:42.709Z,38.22
2023-05-02T14:43:45.568Z,37.20
2023-05-02T14:47:48.781Z,37.97
2023-05-02T14:51:52.574Z,39.09
2023-05-02T14:55:55.670Z,39.70
2023-05-02T14:59:58.486Z,37.81
